createdAt,value
2022-10-19T00:02:37.134Z,8.32
2022-10-19T00:05:39.923Z,7.18
2022-10-19T00:08:43.475Z,7.28
2022-10-19T00:11:48.434Z,8.77
2022-10-19T00:14:50.943Z,7.37
2022-10-19T00:17:53.643Z,7.50
2022-10-19T00:21:06.304Z,7.50
2022-10-19T00:24:09.074Z,7.25
2022-10-19T00:27:11.535Z,6.15
2022-10-19T00:30:14.330Z,8.25
2022-10-19T00:33:21.451Z,6.57
2022-10-19T00:36:27.632Z,8.73
2022-10-19T00:39:30.017Z,8.23
2022-10-19T00:42:32.924Z,7.12
2022-10-19T00:45:35.568Z,8.90
2022-10-19T00:48:38.612Z,9.27
2022-10-19T00:51:50.760Z,7.45
2022-10-19T00:54:55.541Z,8.65
2022-10-19T00:57:58.111Z,8.73
2022-10-19T01:01:04.941Z,8.13
2022-10-19T01:04:08.793Z,8.30
2022-10-19T01:07:12.945Z,7.90
2022-10-19T01:10:15.502Z,8.70
2022-10-19T01:13:21.165Z,9.02
2022-10-19T01:17:00.885Z,9.15
2022-10-19T01:20:33.199Z,9.32
2022-10-19T01:24:13.248Z,8.25
2022-10-19T01:27:43.682Z,7.93
2022-10-19T01:31:24.419Z,7.68
2022-10-19T01:34:38.754Z,8.52
2022-10-19T01:37:52.559Z,7.75
2022-10-19T01:40:58.627Z,8.30
2022-10-19T01:44:11.394Z,9.27
2022-10-19T01:47:41.505Z,9.40
2022-10-19T01:50:55.684Z,8.60
2022-10-19T01:54:04.120Z,8.43
2022-10-19T01:57:10.323Z,8.13
2022-10-19T02:00:17.200Z,11.50
2022-10-19T02:03:20.982Z,8.18
2022-10-19T02:06:23.908Z,9.55
2022-10-19T02:09:26.639Z,7.28
2022-10-19T02:12:32.084Z,10.18
2022-10-19T02:15:38.662Z,7.60
2022-10-19T02:18:46.735Z,8.85
2022-10-19T02:21:50.294Z,7.65
2022-10-19T02:24:53.065Z,9.02
2022-10-19T02:27:55.534Z,9.40
2022-10-19T02:30:59.971Z,7.37
2022-10-19T02:34:02.630Z,7.55
2022-10-19T02:37:06.502Z,8.00
2022-10-19T02:40:09.908Z,6.68
2022-10-19T02:43:19.199Z,7.75
2022-10-19T02:46:44.230Z,8.30
2022-10-19T02:49:48.797Z,8.63
2022-10-19T02:52:51.481Z,8.55
2022-10-19T02:55:54.220Z,8.02
2022-10-19T02:58:57.167Z,7.50
2022-10-19T03:01:59.785Z,7.22
2022-10-19T03:05:02.783Z,7.18
2022-10-19T03:08:05.812Z,11.35
2022-10-19T03:11:08.257Z,11.48
2022-10-19T03:14:10.948Z,7.95
2022-10-19T03:17:13.645Z,9.88
2022-10-19T03:20:16.478Z,9.90
2022-10-19T03:23:18.860Z,11.23
2022-10-19T03:26:21.604Z,10.93
2022-10-19T03:29:24.025Z,7.85
2022-10-19T03:32:26.835Z,11.18
2022-10-19T03:35:29.275Z,10.55
2022-10-19T03:38:31.997Z,8.20
2022-10-19T03:41:36.576Z,9.63
2022-10-19T03:44:39.252Z,11.15
2022-10-19T03:47:41.652Z,9.20
2022-10-19T03:51:01.814Z,10.82
2022-10-19T03:54:06.968Z,8.40
2022-10-19T03:57:10.397Z,10.32
2022-10-19T04:00:13.410Z,8.63
2022-10-19T04:03:15.667Z,10.38
2022-10-19T04:06:21.998Z,6.28
2022-10-19T04:09:24.653Z,9.27
2022-10-19T04:12:27.370Z,9.63
2022-10-19T04:15:29.866Z,8.35
2022-10-19T04:18:32.590Z,10.18
2022-10-19T04:21:37.863Z,6.18
2022-10-19T04:24:40.523Z,10.50
2022-10-19T04:27:43.011Z,10.73
2022-10-19T04:30:45.716Z,8.60
2022-10-19T04:33:48.127Z,8.45
2022-10-19T04:36:50.859Z,7.40
2022-10-19T04:39:53.333Z,8.60
2022-10-19T04:42:56.014Z,8.20
2022-10-19T04:46:03.149Z,7.68
2022-10-19T04:49:06.957Z,10.70
2022-10-19T04:52:09.449Z,6.43
2022-10-19T04:55:12.121Z,9.07
2022-10-19T04:58:14.499Z,7.85
2022-10-19T05:01:21.904Z,6.82
2022-10-19T05:04:24.443Z,8.88
2022-10-19T05:07:27.263Z,8.50
2022-10-19T05:10:29.798Z,7.97
2022-10-19T05:13:33.493Z,7.93
2022-10-19T05:16:35.997Z,7.47
2022-10-19T05:19:38.897Z,7.10
2022-10-19T05:22:41.657Z,8.02
2022-10-19T05:25:44.425Z,8.52
2022-10-19T05:28:49.319Z,8.32
2022-10-19T05:31:52.032Z,7.70
2022-10-19T05:34:54.942Z,8.73
2022-10-19T05:37:57.619Z,8.25
2022-10-19T05:41:01.073Z,9.30
2022-10-19T05:44:05.200Z,7.25
2022-10-19T05:47:07.668Z,8.85
2022-10-19T05:50:10.561Z,7.72
2022-10-19T05:53:13.033Z,8.77
2022-10-19T05:56:21.897Z,7.18
2022-10-19T05:59:24.427Z,6.93
2022-10-19T06:02:27.377Z,6.78
2022-10-19T06:05:30.043Z,7.25
2022-10-19T06:08:33.749Z,9.98
2022-10-19T06:11:39.262Z,9.60
2022-10-19T06:14:42.919Z,7.50
2022-10-19T06:17:45.614Z,6.32
2022-10-19T06:20:50.196Z,7.53
2022-10-19T06:24:02.819Z,8.40
2022-10-19T06:27:06.605Z,7.87
2022-10-19T06:30:09.962Z,8.02
2022-10-19T06:33:13.011Z,6.28
2022-10-19T06:36:21.931Z,6.93
2022-10-19T06:39:24.342Z,9.13
2022-10-19T06:42:27.027Z,7.20
2022-10-19T06:45:33.450Z,8.10
2022-10-19T06:48:38.782Z,6.97
2022-10-19T06:51:41.326Z,7.87
2022-10-19T06:54:44.093Z,8.38
2022-10-19T06:57:46.468Z,8.73
2022-10-19T07:00:58.578Z,8.18
2022-10-19T07:04:01.153Z,8.02
2022-10-19T07:07:04.410Z,8.00
2022-10-19T07:10:08.490Z,8.20
2022-10-19T07:13:11.477Z,7.53
2022-10-19T07:16:19.661Z,8.30
2022-10-19T07:19:27.443Z,8.10
2022-10-19T07:22:29.901Z,8.30
2022-10-19T07:25:32.881Z,9.40
2022-10-19T07:28:35.873Z,8.23
2022-10-19T07:31:38.678Z,8.50
2022-10-19T07:34:41.244Z,8.82
2022-10-19T07:37:43.956Z,8.70
2022-10-19T07:40:48.451Z,8.32
2022-10-19T07:43:52.211Z,8.45
2022-10-19T07:46:54.664Z,8.10
2022-10-19T07:49:57.337Z,7.50
2022-10-19T07:52:59.761Z,7.68
2022-10-19T07:56:09.461Z,7.60
2022-10-19T07:59:14.343Z,7.97
2022-10-19T08:02:18.315Z,7.87
2022-10-19T08:05:21.165Z,7.60
2022-10-19T08:08:24.623Z,7.75
2022-10-19T08:11:30.778Z,6.90
2022-10-19T08:14:33.626Z,7.65
2022-10-19T08:17:37.037Z,7.00
2022-10-19T08:20:45.699Z,7.12
2022-10-19T08:23:49.254Z,6.65
2022-10-19T08:26:52.177Z,6.35
2022-10-19T08:29:55.087Z,6.05
2022-10-19T08:32:57.505Z,6.30
2022-10-19T08:36:00.323Z,6.20
2022-10-19T08:39:04.922Z,6.03
2022-10-19T08:42:18.644Z,6.40
2022-10-19T08:45:43.128Z,6.05
2022-10-19T08:48:46.388Z,6.28
2022-10-19T08:51:54.906Z,6.25
2022-10-19T08:54:58.916Z,5.62
2022-10-19T08:58:30.907Z,5.75
2022-10-19T09:01:56.874Z,5.20
2022-10-19T09:05:05.742Z,4.75
2022-10-19T09:08:14.177Z,4.95
2022-10-19T09:11:27.771Z,3.85
2022-10-19T09:14:38.641Z,4.25
2022-10-19T09:17:43.058Z,3.05
2022-10-19T09:20:49.376Z,3.03
2022-10-19T09:23:55.496Z,3.50
2022-10-19T09:27:02.351Z,3.10
2022-10-19T09:30:14.685Z,2.72
2022-10-19T09:33:26.938Z,3.20
2022-10-19T09:36:50.150Z,2.72
2022-10-19T09:39:55.500Z,2.50
2022-10-19T09:42:59.422Z,2.35
2022-10-19T09:46:19.969Z,2.70
2022-10-19T09:49:49.723Z,3.03
2022-10-19T09:52:56.663Z,2.75
2022-10-19T09:56:06.962Z,3.08
2022-10-19T09:59:22.405Z,3.08
2022-10-19T10:02:33.098Z,3.35
2022-10-19T10:05:39.157Z,3.10
2022-10-19T10:08:52.678Z,3.10
2022-10-19T10:12:00.195Z,3.15
2022-10-19T10:15:06.488Z,2.65
2022-10-19T10:18:18.190Z,2.95
2022-10-19T10:21:27.464Z,2.75
2022-10-19T10:24:34.422Z,3.05
2022-10-19T10:27:39.198Z,3.00
2022-10-19T10:30:45.805Z,2.95
2022-10-19T10:34:11.165Z,2.40
2022-10-19T10:37:35.697Z,1.60
2022-10-19T10:40:39.541Z,1.37
2022-10-19T10:43:55.431Z,1.30
2022-10-19T10:47:00.630Z,1.30
2022-10-19T10:50:06.791Z,1.30
2022-10-19T10:53:29.157Z,1.77
2022-10-19T10:56:34.362Z,1.92
2022-10-19T10:59:45.868Z,1.85
2022-10-19T11:03:23.837Z,1.90
2022-10-19T11:06:27.000Z,1.98
2022-10-19T11:09:36.504Z,1.75
2022-10-19T11:12:45.302Z,1.60
2022-10-19T11:15:59.358Z,1.55
2022-10-19T11:19:24.485Z,1.45
2022-10-19T11:22:34.375Z,1.25
2022-10-19T11:25:55.011Z,1.40
2022-10-19T11:29:17.013Z,1.60
2022-10-19T11:32:29.383Z,1.50
2022-10-19T11:35:47.476Z,1.55
2022-10-19T11:38:56.135Z,1.58
2022-10-19T11:42:06.308Z,1.60
2022-10-19T11:45:41.665Z,1.60
2022-10-19T11:49:03.347Z,1.65
2022-10-19T11:52:14.209Z,1.40
2022-10-19T11:55:43.601Z,1.55
2022-10-19T11:59:07.167Z,1.30
2022-10-19T12:02:51.347Z,1.30
2022-10-19T12:06:08.087Z,1.60
2022-10-19T12:09:36.745Z,1.50
2022-10-19T12:12:45.763Z,1.58
2022-10-19T12:15:53.814Z,1.33
2022-10-19T12:19:01.034Z,1.02
2022-10-19T12:22:07.143Z,1.05
2022-10-19T12:25:14.612Z,1.10
2022-10-19T12:28:29.548Z,1.50
2022-10-19T12:31:36.085Z,1.10
2022-10-19T12:34:56.420Z,1.10
2022-10-19T12:38:06.887Z,1.20
2022-10-19T12:41:26.472Z,1.30
2022-10-19T12:44:44.488Z,1.30
2022-10-19T12:48:25.583Z,1.35
2022-10-19T12:51:45.383Z,1.60
2022-10-19T12:54:47.906Z,1.40
2022-10-19T12:58:17.504Z,1.40
2022-10-19T13:01:42.148Z,1.60
2022-10-19T13:04:54.492Z,1.50
2022-10-19T13:07:58.207Z,1.55
2022-10-19T13:11:15.227Z,1.75
2022-10-19T13:14:17.685Z,1.80
2022-10-19T13:17:40.838Z,1.70
2022-10-19T13:20:53.618Z,1.40
2022-10-19T13:24:36.543Z,1.60
2022-10-19T13:27:39.697Z,1.52
2022-10-19T13:30:46.368Z,1.60
2022-10-19T13:33:49.865Z,1.65
2022-10-19T13:37:00.778Z,1.77
2022-10-19T13:40:23.645Z,1.60
2022-10-19T13:43:32.807Z,1.90
2022-10-19T13:47:03.856Z,1.90
2022-10-19T13:50:12.979Z,2.10
2022-10-19T13:53:18.804Z,2.08
2022-10-19T13:56:49.621Z,1.77
2022-10-19T14:00:01.925Z,1.70
2022-10-19T14:03:40.321Z,2.20
2022-10-19T14:06:52.620Z,2.60
2022-10-19T14:10:08.446Z,2.20
2022-10-19T14:13:15.415Z,2.08
2022-10-19T14:16:20.805Z,2.35
2022-10-19T14:19:30.963Z,2.53
2022-10-19T14:22:34.513Z,2.55
2022-10-19T14:25:37.447Z,2.50
2022-10-19T14:28:41.068Z,2.75
2022-10-19T14:31:43.817Z,2.40
2022-10-19T14:34:48.308Z,2.50
2022-10-19T14:37:51.410Z,2.37
2022-10-19T14:40:56.007Z,2.30
2022-10-19T14:44:00.575Z,2.20
2022-10-19T14:47:15.137Z,2.22
2022-10-19T14:50:23.416Z,2.20
2022-10-19T14:54:01.106Z,2.40
2022-10-19T15:00:20.970Z,2.17
2022-10-19T15:03:28.172Z,2.20
2022-10-19T15:06:35.510Z,2.00
2022-10-19T15:09:48.171Z,2.30
2022-10-19T15:12:52.563Z,2.33
2022-10-19T15:15:55.765Z,2.08
2022-10-19T15:19:04.371Z,2.35
2022-10-19T15:22:19.225Z,2.25
2022-10-19T15:25:31.084Z,2.42
2022-10-19T15:28:41.460Z,2.30
2022-10-19T15:31:44.278Z,2.40
2022-10-19T15:34:47.078Z,2.40
2022-10-19T15:37:50.742Z,2.67
2022-10-19T15:40:59.170Z,2.30
2022-10-19T15:44:08.360Z,2.80
2022-10-19T15:47:20.168Z,2.33
2022-10-19T15:50:36.457Z,2.33
2022-10-19T15:53:39.091Z,2.30
2022-10-19T15:56:41.875Z,2.55
2022-10-19T15:59:44.896Z,2.75
2022-10-19T16:02:47.375Z,2.50
2022-10-19T16:05:50.216Z,2.47
2022-10-19T16:08:54.196Z,2.62
2022-10-19T16:11:57.470Z,2.25
2022-10-19T16:15:01.100Z,2.40
2022-10-19T16:18:04.066Z,1.90
2022-10-19T16:21:07.354Z,2.37
2022-10-19T16:24:10.290Z,2.72
2022-10-19T16:27:16.386Z,2.03
2022-10-19T16:30:19.750Z,2.03
2022-10-19T16:33:23.270Z,2.80
2022-10-19T16:36:26.322Z,2.42
2022-10-19T16:39:29.524Z,2.28
2022-10-19T16:42:33.355Z,1.62
2022-10-19T16:45:36.286Z,2.58
2022-10-19T16:48:39.197Z,2.85
2022-10-19T16:51:42.480Z,1.58
2022-10-19T16:54:47.862Z,2.95
2022-10-19T16:57:52.491Z,1.80
2022-10-19T17:00:56.326Z,2.03
2022-10-19T17:04:00.622Z,2.78
2022-10-19T17:07:04.197Z,3.00
2022-10-19T17:10:07.449Z,2.00
2022-10-19T17:13:10.945Z,1.52
2022-10-19T17:16:14.841Z,2.80
2022-10-19T17:19:18.171Z,2.03
2022-10-19T17:22:20.871Z,2.80
2022-10-19T17:25:24.001Z,2.40
2022-10-19T17:28:28.786Z,2.60
2022-10-19T17:31:34.605Z,2.62
2022-10-19T17:34:37.354Z,2.85
2022-10-19T17:37:40.434Z,2.62
2022-10-19T17:40:47.615Z,2.30
2022-10-19T17:43:54.468Z,2.25
2022-10-19T17:46:57.297Z,1.60
2022-10-19T17:50:00.781Z,3.50
2022-10-19T17:53:04.607Z,2.15
2022-10-19T17:56:08.370Z,2.53
2022-10-19T17:59:11.433Z,2.83
2022-10-19T18:02:14.436Z,2.17
2022-10-19T18:05:17.617Z,2.67
2022-10-19T18:08:20.316Z,2.85
2022-10-19T18:11:37.244Z,2.50
2022-10-19T18:14:40.564Z,2.20
2022-10-19T18:17:43.802Z,3.12
2022-10-19T18:20:47.480Z,2.87
2022-10-19T18:23:53.531Z,2.17
2022-10-19T18:26:56.280Z,3.03
2022-10-19T18:29:59.380Z,2.50
2022-10-19T18:33:02.232Z,2.10
2022-10-19T18:36:06.752Z,2.50
2022-10-19T18:39:11.437Z,2.40
2022-10-19T18:42:16.413Z,2.53
2022-10-19T18:45:19.473Z,1.98
2022-10-19T18:48:25.253Z,2.42
2022-10-19T18:51:29.177Z,2.30
2022-10-19T18:54:32.160Z,2.97
2022-10-19T18:57:34.915Z,2.55
2022-10-19T19:00:45.578Z,2.62
2022-10-19T19:03:49.904Z,2.00
2022-10-19T19:06:53.324Z,2.40
2022-10-19T19:09:56.475Z,2.35
2022-10-19T19:13:00.540Z,2.37
2022-10-19T19:16:03.300Z,2.37
2022-10-19T19:19:07.646Z,2.42
2022-10-19T19:22:10.521Z,2.35
2022-10-19T19:25:13.469Z,2.15
2022-10-19T19:28:16.214Z,2.10
2022-10-19T19:31:20.349Z,2.42
2022-10-19T19:34:23.866Z,2.20
2022-10-19T19:37:26.834Z,2.17
2022-10-19T19:40:34.310Z,2.07
2022-10-19T19:43:38.369Z,2.22
2022-10-19T19:46:42.256Z,1.52
2022-10-19T19:49:45.477Z,2.17
2022-10-19T19:52:48.624Z,2.10
2022-10-19T19:55:51.682Z,2.30
2022-10-19T19:58:59.119Z,2.22
2022-10-19T20:05:05.970Z,1.48
2022-10-19T20:08:09.349Z,1.90
2022-10-19T20:11:14.595Z,1.30
2022-10-19T20:14:18.786Z,1.70
2022-10-19T20:17:23.835Z,1.77
2022-10-19T20:20:29.350Z,1.73
2022-10-19T20:23:32.843Z,2.03
2022-10-19T20:26:35.876Z,2.83
2022-10-19T20:29:38.801Z,1.77
2022-10-19T20:32:41.564Z,1.98
2022-10-19T20:35:44.550Z,1.42
2022-10-19T20:38:58.015Z,1.58
2022-10-19T20:42:01.217Z,1.27
2022-10-19T20:45:07.288Z,2.05
2022-10-19T20:48:15.356Z,1.55
2022-10-19T20:51:19.300Z,1.95
2022-10-19T20:54:22.344Z,1.83
2022-10-19T20:57:25.200Z,2.17
2022-10-19T21:00:30.893Z,1.95
2022-10-19T21:03:33.528Z,1.90
2022-10-19T21:06:44.606Z,2.03
2022-10-19T21:09:47.122Z,1.92
2022-10-19T21:12:49.836Z,1.98
2022-10-19T21:15:54.600Z,2.65
2022-10-19T21:18:57.496Z,1.92
2022-10-19T21:22:02.262Z,1.95
2022-10-19T21:25:05.452Z,1.83
2022-10-19T21:28:08.041Z,1.35
2022-10-19T21:31:10.816Z,2.12
2022-10-19T21:34:18.056Z,2.08
2022-10-19T21:37:20.769Z,1.73
2022-10-19T21:40:25.716Z,1.87
2022-10-19T21:43:28.911Z,1.62
2022-10-19T21:46:31.494Z,1.62
2022-10-19T21:49:34.785Z,2.30
2022-10-19T21:52:37.113Z,1.30
2022-10-19T21:55:39.923Z,1.90
2022-10-19T21:58:47.315Z,1.65
2022-10-19T22:01:50.229Z,1.40
2022-10-19T22:04:53.004Z,1.37
2022-10-19T22:07:55.567Z,2.10
2022-10-19T22:11:08.047Z,1.40
2022-10-19T22:14:13.046Z,2.45
2022-10-19T22:17:15.721Z,1.87
2022-10-19T22:20:18.492Z,1.62
2022-10-19T22:23:21.185Z,1.33
2022-10-19T22:26:26.600Z,1.37
2022-10-19T22:29:29.339Z,1.42
2022-10-19T22:32:31.783Z,2.53
2022-10-19T22:35:34.509Z,1.20
2022-10-19T22:38:37.037Z,1.80
2022-10-19T22:42:36.364Z,1.70
2022-10-19T22:45:57.645Z,1.95
2022-10-19T22:49:00.635Z,1.60
2022-10-19T22:52:03.506Z,1.27
2022-10-19T22:55:06.548Z,1.83
2022-10-19T22:58:09.580Z,1.33
2022-10-19T23:01:14.787Z,1.27
2022-10-19T23:04:17.367Z,1.83
2022-10-19T23:07:20.116Z,1.45
2022-10-19T23:10:23.293Z,1.25
2022-10-19T23:13:26.100Z,2.00
2022-10-19T23:19:36.305Z,1.30
2022-10-19T23:22:39.127Z,1.62
2022-10-19T23:25:41.829Z,1.30
2022-10-19T23:28:46.073Z,1.00
2022-10-19T23:31:50.662Z,1.73
2022-10-19T23:34:53.137Z,1.40
2022-10-19T23:37:55.930Z,1.60
2022-10-19T23:40:58.481Z,1.42
2022-10-19T23:44:01.163Z,1.20
2022-10-19T23:47:03.547Z,1.73
2022-10-19T23:50:06.766Z,1.90
2022-10-19T23:53:09.547Z,1.42
2022-10-19T23:56:15.627Z,1.02
2022-10-19T23:59:18.054Z,1.40
